createdAt,value
2022-12-11T00:02:03.065Z,1.51
2022-12-11T00:04:29.356Z,1.76
2022-12-11T00:06:55.763Z,1.54
2022-12-11T00:09:22.264Z,1.59
2022-12-11T00:11:48.595Z,1.80
2022-12-11T00:14:14.882Z,1.70
2022-12-11T00:16:41.308Z,1.73
2022-12-11T00:19:07.782Z,1.87
2022-12-11T00:21:34.097Z,2.17
2022-12-11T00:24:00.373Z,2.37
2022-12-11T00:26:26.690Z,2.53
2022-12-11T00:28:53.717Z,1.97
2022-12-11T00:31:20.103Z,1.67
2022-12-11T00:33:48.934Z,1.61
2022-12-11T00:36:16.080Z,1.96
2022-12-11T00:38:42.955Z,1.93
2022-12-11T00:41:09.252Z,2.25
2022-12-11T00:43:35.562Z,2.48
2022-12-11T00:46:01.949Z,2.51
2022-12-11T00:48:28.236Z,2.77
2022-12-11T00:50:54.516Z,2.93
2022-12-11T00:53:20.910Z,2.92
2022-12-11T00:55:47.211Z,2.85
2022-12-11T00:58:13.635Z,2.80
2022-12-11T01:00:40.534Z,2.88
2022-12-11T01:03:06.911Z,2.77
2022-12-11T01:05:33.213Z,2.87
2022-12-11T01:07:59.545Z,2.88
2022-12-11T01:10:26.350Z,3.08
2022-12-11T01:13:12.936Z,3.03
2022-12-11T01:15:41.771Z,3.00
2022-12-11T01:18:08.442Z,2.98
2022-12-11T01:20:34.763Z,2.74
2022-12-11T01:23:01.040Z,2.74
2022-12-11T01:25:27.710Z,2.49
2022-12-11T01:27:54.245Z,2.63
2022-12-11T01:30:21.024Z,2.51
2022-12-11T01:32:47.289Z,2.74
2022-12-11T01:35:13.672Z,2.81
2022-12-11T01:37:39.990Z,2.72
2022-12-11T01:40:06.695Z,2.58
2022-12-11T01:42:32.960Z,2.63
2022-12-11T01:45:18.020Z,2.71
2022-12-11T01:47:44.321Z,2.88
2022-12-11T01:50:10.604Z,2.72
2022-12-11T01:52:36.894Z,2.58
2022-12-11T01:55:03.160Z,2.64
2022-12-11T01:57:29.413Z,2.70
2022-12-11T01:59:55.700Z,2.72
2022-12-11T02:02:26.587Z,2.71
2022-12-11T02:04:52.921Z,2.17
2022-12-11T02:07:19.240Z,1.92
2022-12-11T02:09:46.067Z,1.88
2022-12-11T02:12:15.431Z,2.12
2022-12-11T02:14:47.754Z,2.12
2022-12-11T02:17:21.987Z,1.98
2022-12-11T02:20:14.526Z,2.12
2022-12-11T02:22:47.644Z,2.38
2022-12-11T02:25:17.202Z,2.45
2022-12-11T02:27:47.222Z,2.59
2022-12-11T02:30:14.288Z,2.38
2022-12-11T02:32:45.894Z,2.55
2022-12-11T02:35:12.518Z,2.76
2022-12-11T02:37:39.176Z,2.86
2022-12-11T02:40:06.509Z,2.72
2022-12-11T02:42:32.781Z,2.45
2022-12-11T02:44:59.256Z,2.52
2022-12-11T02:47:25.625Z,2.52
2022-12-11T02:49:51.973Z,2.49
2022-12-11T02:52:18.922Z,2.34
2022-12-11T02:54:45.210Z,2.23
2022-12-11T02:57:12.269Z,1.95
2022-12-11T02:59:39.269Z,1.93
2022-12-11T03:02:05.579Z,2.17
2022-12-11T03:04:31.880Z,2.30
2022-12-11T03:07:00.051Z,2.42
2022-12-11T03:09:27.035Z,2.45
2022-12-11T03:11:53.297Z,2.13
2022-12-11T03:14:19.593Z,2.07
2022-12-11T03:16:48.762Z,1.96
2022-12-11T03:19:15.030Z,1.66
2022-12-11T03:21:47.420Z,1.74
2022-12-11T03:24:15.164Z,1.70
2022-12-11T03:26:45.792Z,1.87
2022-12-11T03:29:16.880Z,1.91
2022-12-11T03:31:43.884Z,2.09
2022-12-11T03:34:20.242Z,2.17
2022-12-11T03:36:46.501Z,2.32
2022-12-11T03:39:13.768Z,2.11
2022-12-11T03:41:40.111Z,1.96
2022-12-11T03:44:06.744Z,1.75
2022-12-11T03:46:34.144Z,1.74
2022-12-11T03:49:01.745Z,1.61
2022-12-11T03:51:28.876Z,1.65
2022-12-11T03:53:55.145Z,1.77
2022-12-11T03:56:21.416Z,1.81
2022-12-11T03:58:47.733Z,1.88
2022-12-11T04:01:14.014Z,1.84
2022-12-11T04:03:40.457Z,1.83
2022-12-11T04:06:06.851Z,1.57
2022-12-11T04:08:33.126Z,1.60
2022-12-11T04:11:18.159Z,1.39
2022-12-11T04:13:44.445Z,1.17
2022-12-11T04:16:10.728Z,1.11
2022-12-11T04:18:55.411Z,1.13
2022-12-11T04:21:40.229Z,1.35
2022-12-11T04:24:15.891Z,1.46
2022-12-11T04:26:45.451Z,1.32
2022-12-11T04:29:11.740Z,1.09
2022-12-11T04:31:38.023Z,1.10
2022-12-11T04:34:04.312Z,1.31
2022-12-11T04:36:30.591Z,1.54
2022-12-11T04:38:56.856Z,1.78
2022-12-11T04:41:23.139Z,1.55
2022-12-11T04:43:49.429Z,1.56
2022-12-11T04:46:19.459Z,1.25
2022-12-11T04:48:45.813Z,0.94
2022-12-11T04:51:12.611Z,1.05
2022-12-11T04:53:38.898Z,1.25
2022-12-11T04:56:05.867Z,1.37
2022-12-11T04:58:32.157Z,1.30
2022-12-11T05:00:58.443Z,1.18
2022-12-11T05:03:24.732Z,0.95
2022-12-11T05:05:51.497Z,0.60
2022-12-11T05:08:21.005Z,0.40
2022-12-11T05:10:57.434Z,0.53
2022-12-11T05:13:23.761Z,0.77
2022-12-11T05:15:50.090Z,0.86
2022-12-11T05:18:16.761Z,0.90
2022-12-11T05:20:43.048Z,1.00
2022-12-11T05:23:09.313Z,1.19
2022-12-11T05:25:35.596Z,1.01
2022-12-11T05:28:01.870Z,0.63
2022-12-11T05:30:28.149Z,0.31
2022-12-11T05:32:54.430Z,0.29
2022-12-11T05:35:20.688Z,0.34
2022-12-11T05:37:46.968Z,0.36
2022-12-11T05:40:13.252Z,0.45
2022-12-11T05:42:39.560Z,0.71
2022-12-11T05:45:06.151Z,0.93
2022-12-11T05:47:32.432Z,1.22
2022-12-11T05:49:58.693Z,1.39
2022-12-11T05:52:24.987Z,1.18
2022-12-11T05:54:51.259Z,0.96
2022-12-11T05:57:17.750Z,0.87
2022-12-11T05:59:44.043Z,0.57
2022-12-11T06:02:10.390Z,0.46
2022-12-11T06:04:36.747Z,0.27
2022-12-11T06:07:03.372Z,-0.15
2022-12-11T06:09:29.964Z,-0.45
2022-12-11T06:11:56.241Z,-0.56
2022-12-11T06:14:22.532Z,-0.43
2022-12-11T06:16:50.015Z,-0.15
2022-12-11T06:19:18.215Z,-0.21
2022-12-11T06:21:45.032Z,-0.48
2022-12-11T06:24:11.409Z,-0.61
2022-12-11T06:26:37.699Z,-0.63
2022-12-11T06:29:08.879Z,-0.75
2022-12-11T06:31:37.285Z,-0.60
2022-12-11T06:34:03.627Z,-0.67
2022-12-11T06:36:29.899Z,-0.40
2022-12-11T06:38:56.177Z,-0.26
2022-12-11T06:41:22.484Z,-0.14
2022-12-11T06:43:48.830Z,-0.03
2022-12-11T06:46:17.690Z,0.15
2022-12-11T06:48:44.084Z,0.19
2022-12-11T06:51:14.435Z,0.28
2022-12-11T06:53:40.774Z,0.16
2022-12-11T06:56:11.275Z,0.27
2022-12-11T06:58:37.630Z,0.07
2022-12-11T07:01:04.221Z,-0.01
2022-12-11T07:03:30.573Z,-0.16
2022-12-11T07:06:00.581Z,-0.17
2022-12-11T07:08:27.824Z,-0.16
2022-12-11T07:10:54.126Z,-0.20
2022-12-11T07:13:20.401Z,-0.45
2022-12-11T07:15:46.680Z,-0.50
2022-12-11T07:18:12.932Z,-0.38
2022-12-11T07:20:39.229Z,-0.43
2022-12-11T07:23:05.550Z,-0.46
2022-12-11T07:25:31.845Z,-0.54
2022-12-11T07:27:58.124Z,-0.37
2022-12-11T07:30:24.400Z,-0.43
2022-12-11T07:32:50.708Z,-0.44
2022-12-11T07:35:17.021Z,-0.66
2022-12-11T07:37:44.777Z,-0.83
2022-12-11T07:40:11.231Z,-0.97
2022-12-11T07:42:41.423Z,-0.98
2022-12-11T07:45:11.103Z,-0.89
2022-12-11T07:47:37.557Z,-0.93
2022-12-11T07:50:03.880Z,-0.84
2022-12-11T07:52:30.136Z,-0.76
2022-12-11T07:54:56.416Z,-0.75
2022-12-11T07:57:22.712Z,-0.74
2022-12-11T07:59:48.977Z,-0.70
2022-12-11T08:02:15.282Z,-0.74
2022-12-11T08:04:41.622Z,-0.49
2022-12-11T08:07:07.900Z,-0.60
2022-12-11T08:09:34.209Z,-0.50
2022-12-11T08:12:00.516Z,-0.40
2022-12-11T08:14:26.833Z,-0.58
2022-12-11T08:16:53.253Z,-0.51
2022-12-11T08:19:19.561Z,-0.58
2022-12-11T08:21:45.926Z,-0.50
2022-12-11T08:24:12.255Z,-0.29
2022-12-11T08:26:38.546Z,-0.10
2022-12-11T08:29:04.880Z,0.07
2022-12-11T08:31:31.376Z,0.16
2022-12-11T08:33:57.746Z,0.38
2022-12-11T08:36:24.106Z,0.55
2022-12-11T08:38:50.502Z,0.36
2022-12-11T08:41:17.537Z,0.26
2022-12-11T08:43:43.843Z,0.23
2022-12-11T08:46:10.491Z,0.22
2022-12-11T08:48:37.059Z,0.26
2022-12-11T08:51:04.666Z,0.12
2022-12-11T08:53:31.129Z,0.11
2022-12-11T08:56:01.221Z,0.50
2022-12-11T08:58:27.476Z,0.64
2022-12-11T09:00:53.814Z,0.91
2022-12-11T09:03:20.177Z,0.95
2022-12-11T09:05:46.452Z,0.76
2022-12-11T09:08:12.765Z,0.73
2022-12-11T09:10:39.064Z,0.85
2022-12-11T09:13:05.361Z,1.05
2022-12-11T09:15:31.695Z,1.09
2022-12-11T09:17:57.985Z,1.10
2022-12-11T09:20:24.325Z,1.01
2022-12-11T09:22:50.593Z,0.99
2022-12-11T09:25:16.883Z,0.98
2022-12-11T09:27:43.197Z,1.22
2022-12-11T09:30:09.545Z,1.39
2022-12-11T09:32:35.852Z,1.48
2022-12-11T09:35:02.130Z,1.40
2022-12-11T09:37:28.700Z,1.42
2022-12-11T09:39:54.992Z,1.57
2022-12-11T09:42:24.191Z,1.25
2022-12-11T09:44:52.915Z,1.12
2022-12-11T09:47:21.032Z,1.26
2022-12-11T09:49:47.796Z,1.35
2022-12-11T09:52:34.299Z,1.33
2022-12-11T09:55:01.273Z,1.33
2022-12-11T09:57:27.500Z,1.52
2022-12-11T10:00:04.440Z,1.45
2022-12-11T10:02:50.996Z,1.34
2022-12-11T10:05:17.295Z,1.54
2022-12-11T10:07:54.795Z,1.67
2022-12-11T10:10:27.209Z,1.83
2022-12-11T10:12:57.253Z,1.92
2022-12-11T10:15:33.547Z,1.79
2022-12-11T10:18:04.643Z,1.84
2022-12-11T10:20:35.026Z,2.08
2022-12-11T10:23:01.311Z,2.01
2022-12-11T10:25:29.550Z,1.89
2022-12-11T10:27:56.026Z,1.91
2022-12-11T10:30:28.366Z,1.83
2022-12-11T10:33:15.593Z,1.85
2022-12-11T10:35:51.992Z,2.03
2022-12-11T10:38:24.700Z,2.17
2022-12-11T10:40:52.415Z,2.14
2022-12-11T10:43:18.789Z,2.05
2022-12-11T10:45:52.428Z,1.80
2022-12-11T10:48:18.691Z,1.71
2022-12-11T10:50:45.790Z,1.52
2022-12-11T10:53:20.005Z,1.73
2022-12-11T10:55:46.318Z,1.83
2022-12-11T10:58:14.312Z,1.88
2022-12-11T11:00:40.691Z,1.78
2022-12-11T11:03:27.292Z,1.87
2022-12-11T11:06:06.672Z,2.02
2022-12-11T11:08:59.090Z,2.15
2022-12-11T11:11:36.706Z,2.27
2022-12-11T11:14:18.797Z,2.25
2022-12-11T11:16:45.897Z,2.13
2022-12-11T11:19:18.807Z,2.18
2022-12-11T11:21:49.046Z,2.13
2022-12-11T11:24:22.537Z,2.08
2022-12-11T11:27:12.141Z,1.81
2022-12-11T11:29:37.646Z,1.98
2022-12-11T11:32:14.672Z,1.69
2022-12-11T11:34:40.936Z,1.31
2022-12-11T11:37:15.494Z,1.48
2022-12-11T11:39:44.977Z,1.82
2022-12-11T11:42:18.991Z,1.82
2022-12-11T11:44:49.028Z,1.88
2022-12-11T11:47:17.331Z,2.09
2022-12-11T11:49:53.479Z,2.29
2022-12-11T11:52:28.377Z,2.42
2022-12-11T11:55:16.215Z,2.42
2022-12-11T11:57:57.183Z,2.04
2022-12-11T12:00:27.505Z,1.98
2022-12-11T12:02:59.461Z,1.83
2022-12-11T12:05:27.348Z,1.84
2022-12-11T12:08:12.385Z,1.98
2022-12-11T12:10:48.360Z,1.91
2022-12-11T12:13:47.642Z,1.95
2022-12-11T12:16:22.961Z,1.76
2022-12-11T12:19:11.925Z,1.65
2022-12-11T12:21:38.899Z,1.52
2022-12-11T12:24:24.065Z,1.37
2022-12-11T12:26:58.514Z,1.20
2022-12-11T12:29:33.814Z,1.15
2022-12-11T12:32:05.442Z,1.04
2022-12-11T12:34:31.665Z,0.95
2022-12-11T12:37:07.327Z,0.92
2022-12-11T12:39:37.576Z,0.91
2022-12-11T12:42:07.877Z,0.89
2022-12-11T12:44:37.760Z,0.96
2022-12-11T12:47:05.244Z,0.95
2022-12-11T12:49:40.690Z,0.93
2022-12-11T12:52:10.343Z,0.95
2022-12-11T12:54:36.697Z,0.81
2022-12-11T12:57:03.058Z,0.62
2022-12-11T12:59:29.385Z,0.47
2022-12-11T13:01:56.939Z,0.42
2022-12-11T13:04:55.602Z,0.42
2022-12-11T13:07:27.007Z,0.40
2022-12-11T13:09:56.797Z,0.35
2022-12-11T13:12:28.887Z,0.25
2022-12-11T13:14:58.244Z,0.13
2022-12-11T13:17:26.182Z,0.20
2022-12-11T13:20:03.625Z,0.27
2022-12-11T13:22:29.892Z,0.18
2022-12-11T13:25:01.479Z,0.15
2022-12-11T13:27:49.204Z,0.06
2022-12-11T13:30:15.462Z,-0.07
2022-12-11T13:32:55.475Z,-0.07
2022-12-11T13:35:21.771Z,-0.03
2022-12-11T13:37:49.578Z,-0.07
2022-12-11T13:40:17.396Z,-0.03
2022-12-11T13:42:54.501Z,-0.10
2022-12-11T13:45:33.250Z,-0.11
2022-12-11T13:47:59.623Z,-0.12
2022-12-11T13:50:26.795Z,-0.15
2022-12-11T13:52:53.908Z,-0.10
2022-12-11T13:55:26.337Z,-0.21
2022-12-11T13:57:52.612Z,-0.27
2022-12-11T14:00:30.044Z,-0.18
2022-12-11T14:02:56.415Z,-0.08
2022-12-11T14:05:22.725Z,-0.17
2022-12-11T14:07:49.674Z,-0.33
2022-12-11T14:10:17.264Z,-0.40
2022-12-11T14:12:53.813Z,-0.48
2022-12-11T14:15:20.171Z,-0.51
2022-12-11T14:17:51.506Z,-0.50
2022-12-11T14:20:25.359Z,-0.42
2022-12-11T14:22:51.744Z,-0.39
2022-12-11T14:25:20.114Z,-0.54
2022-12-11T14:27:47.373Z,-0.59
2022-12-11T14:30:14.422Z,-0.63
2022-12-11T14:32:43.996Z,-0.66
2022-12-11T14:35:14.109Z,-0.68
2022-12-11T14:37:40.393Z,-0.57
2022-12-11T14:40:08.218Z,-0.64
2022-12-11T14:42:38.152Z,-0.63
2022-12-11T14:45:07.298Z,-0.70
2022-12-11T14:47:34.852Z,-0.71
2022-12-11T14:50:05.927Z,-0.83
2022-12-11T14:52:39.200Z,-0.88
2022-12-11T14:55:06.555Z,-0.80
2022-12-11T14:57:33.023Z,-0.87
2022-12-11T14:59:59.305Z,-1.03
2022-12-11T15:02:25.659Z,-0.99
2022-12-11T15:05:10.800Z,-0.90
2022-12-11T15:07:37.277Z,-0.89
2022-12-11T15:10:04.043Z,-0.97
2022-12-11T15:12:30.382Z,-0.96
2022-12-11T15:15:00.820Z,-1.07
2022-12-11T15:17:27.156Z,-1.15
2022-12-11T15:19:54.558Z,-1.37
2022-12-11T15:22:23.628Z,-1.63
2022-12-11T15:24:50.361Z,-1.57
2022-12-11T15:27:22.785Z,-1.68
2022-12-11T15:29:49.056Z,-1.72
2022-12-11T15:32:18.894Z,-1.67
2022-12-11T15:34:51.290Z,-1.57
2022-12-11T15:37:17.535Z,-1.65
2022-12-11T15:39:43.819Z,-1.83
2022-12-11T15:42:10.108Z,-1.80
2022-12-11T15:44:36.382Z,-1.52
2022-12-11T15:47:11.285Z,-1.51
2022-12-11T15:49:37.700Z,-1.50
2022-12-11T15:52:04.071Z,-1.56
2022-12-11T15:54:30.500Z,-1.59
2022-12-11T15:56:56.961Z,-1.76
2022-12-11T15:59:23.230Z,-1.71
2022-12-11T16:01:49.529Z,-1.76
2022-12-11T16:04:15.840Z,-1.66
2022-12-11T16:06:45.225Z,-1.55
2022-12-11T16:09:11.551Z,-1.56
2022-12-11T16:11:37.876Z,-1.55
2022-12-11T16:14:04.458Z,-1.58
2022-12-11T16:16:30.992Z,-1.47
2022-12-11T16:18:57.254Z,-1.74
2022-12-11T16:21:23.520Z,-1.82
2022-12-11T16:23:49.799Z,-1.81
2022-12-11T16:26:16.079Z,-1.92
2022-12-11T16:28:42.472Z,-1.62
2022-12-11T16:31:12.484Z,-1.61
2022-12-11T16:33:39.035Z,-1.54
2022-12-11T16:36:15.047Z,-1.40
2022-12-11T16:38:41.770Z,-1.29
2022-12-11T16:41:08.039Z,-1.33
2022-12-11T16:43:34.320Z,-1.37
2022-12-11T16:46:00.739Z,-1.46
2022-12-11T16:48:27.085Z,-1.43
2022-12-11T16:50:54.438Z,-1.36
2022-12-11T16:53:21.369Z,-1.35
2022-12-11T16:55:47.666Z,-1.37
2022-12-11T16:58:19.966Z,-1.50
2022-12-11T17:00:46.816Z,-1.51
2022-12-11T17:03:13.290Z,-1.54
2022-12-11T17:05:39.904Z,-1.71
2022-12-11T17:08:06.585Z,-1.89
2022-12-11T17:10:32.927Z,-1.70
2022-12-11T17:12:59.197Z,-1.52
2022-12-11T17:15:25.490Z,-1.65
2022-12-11T17:17:51.747Z,-1.65
2022-12-11T17:20:18.261Z,-1.85
2022-12-11T17:22:45.890Z,-2.03
2022-12-11T17:25:12.429Z,-2.01
2022-12-11T17:27:38.964Z,-2.15
2022-12-11T17:30:05.481Z,-2.11
2022-12-11T17:32:31.752Z,-2.00
2022-12-11T17:34:58.034Z,-1.95
2022-12-11T17:37:24.324Z,-1.85
2022-12-11T17:39:50.633Z,-1.73
2022-12-11T17:42:16.915Z,-1.56
2022-12-11T17:44:45.326Z,-1.59
2022-12-11T17:47:12.041Z,-1.56
2022-12-11T17:49:41.427Z,-1.70
2022-12-11T17:52:07.781Z,-1.90
2022-12-11T17:54:34.844Z,-1.79
2022-12-11T17:57:01.553Z,-1.76
2022-12-11T17:59:27.826Z,-1.78
2022-12-11T18:01:54.187Z,-1.73
2022-12-11T18:04:20.482Z,-1.72
2022-12-11T18:06:46.764Z,-1.59
2022-12-11T18:09:13.029Z,-1.68
2022-12-11T18:11:39.284Z,-1.87
2022-12-11T18:14:05.663Z,-1.90
2022-12-11T18:16:33.079Z,-1.81
2022-12-11T18:18:59.427Z,-1.74
2022-12-11T18:21:26.943Z,-1.84
2022-12-11T18:23:53.236Z,-1.73
2022-12-11T18:26:19.759Z,-1.77
2022-12-11T18:28:46.523Z,-1.66
2022-12-11T18:31:13.444Z,-1.80
2022-12-11T18:33:40.136Z,-1.92
2022-12-11T18:36:06.643Z,-2.04
2022-12-11T18:38:33.482Z,-2.00
2022-12-11T18:41:03.822Z,-2.16
2022-12-11T18:43:30.104Z,-2.24
2022-12-11T18:45:56.519Z,-1.99
2022-12-11T18:48:22.783Z,-1.98
2022-12-11T18:50:49.355Z,-2.08
2022-12-11T18:53:16.029Z,-1.94
2022-12-11T18:55:46.148Z,-1.92
2022-12-11T18:58:12.743Z,-1.87
2022-12-11T19:00:39.864Z,-1.87
2022-12-11T19:03:06.737Z,-1.92
2022-12-11T19:05:33.664Z,-1.80
2022-12-11T19:08:00.201Z,-1.89
2022-12-11T19:10:26.703Z,-2.10
2022-12-11T19:12:53.001Z,-2.30
2022-12-11T19:15:23.534Z,-2.17
2022-12-11T19:17:50.385Z,-2.01
2022-12-11T19:20:47.645Z,-1.88
2022-12-11T19:23:03.078Z,-1.70
2022-12-11T19:25:29.361Z,-1.42
2022-12-11T19:27:56.934Z,-1.24
2022-12-11T19:30:23.561Z,-1.00
2022-12-11T19:32:49.846Z,-0.93
2022-12-11T19:35:17.547Z,-0.82
2022-12-11T19:37:43.810Z,-0.94
2022-12-11T19:40:10.339Z,-0.92
2022-12-11T19:42:36.652Z,-0.77
2022-12-11T19:45:02.969Z,-0.68
2022-12-11T19:47:29.284Z,-0.63
2022-12-11T19:49:56.490Z,-0.67
2022-12-11T19:52:22.809Z,-0.80
2022-12-11T19:54:49.086Z,-0.71
2022-12-11T19:57:15.371Z,-0.49
2022-12-11T19:59:41.672Z,-0.72
2022-12-11T20:02:09.034Z,-0.64
2022-12-11T20:04:35.365Z,-0.50
2022-12-11T20:07:01.755Z,-0.58
2022-12-11T20:09:28.192Z,-0.72
2022-12-11T20:11:54.452Z,-0.71
2022-12-11T20:14:24.094Z,-0.86
2022-12-11T20:19:36.686Z,-0.93
2022-12-11T20:22:02.951Z,-0.91
2022-12-11T20:24:29.552Z,-0.83
2022-12-11T20:26:57.097Z,-0.57
2022-12-11T20:29:23.627Z,-0.32
2022-12-11T20:31:50.614Z,-0.32
2022-12-11T20:34:16.936Z,-0.51
2022-12-11T20:36:43.350Z,-0.74
2022-12-11T20:39:10.049Z,-1.09
2022-12-11T20:41:36.332Z,-1.08
2022-12-11T20:44:02.612Z,-1.02
2022-12-11T20:46:28.900Z,-0.87
2022-12-11T20:48:55.671Z,-0.77
2022-12-11T20:51:25.708Z,-0.74
2022-12-11T20:53:58.071Z,-0.91
2022-12-11T20:56:24.672Z,-0.86
2022-12-11T20:58:50.952Z,-0.70
2022-12-11T21:01:17.840Z,-0.55
2022-12-11T21:03:44.241Z,-0.54
2022-12-11T21:06:22.908Z,-0.64
2022-12-11T21:08:49.177Z,-0.56
2022-12-11T21:11:15.454Z,-0.35
2022-12-11T21:13:41.834Z,-0.14
2022-12-11T21:16:08.460Z,-0.15
2022-12-11T21:18:34.789Z,-0.17
2022-12-11T21:21:01.061Z,0.10
2022-12-11T21:23:27.336Z,-0.15
2022-12-11T21:25:53.620Z,-0.09
2022-12-11T21:28:20.031Z,-0.11
2022-12-11T21:30:46.398Z,-0.14
2022-12-11T21:33:12.665Z,-0.15
2022-12-11T21:35:38.939Z,-0.09
2022-12-11T21:38:05.230Z,-0.14
2022-12-11T21:40:31.516Z,-0.10
2022-12-11T21:42:57.804Z,-0.30
2022-12-11T21:45:59.912Z,-0.11
2022-12-11T21:48:10.998Z,-0.34
2022-12-11T21:50:37.284Z,-0.51
2022-12-11T21:53:03.627Z,-0.58
2022-12-11T21:55:29.896Z,-0.47
2022-12-11T21:57:56.161Z,-0.51
2022-12-11T22:00:22.678Z,-0.52
2022-12-11T22:02:49.028Z,-0.29
2022-12-11T22:05:15.335Z,-0.37
2022-12-11T22:07:41.610Z,-0.53
2022-12-11T22:10:08.159Z,-0.53
2022-12-11T22:12:34.510Z,-0.62
2022-12-11T22:15:00.875Z,-0.83
2022-12-11T22:17:27.179Z,-0.77
2022-12-11T22:19:53.563Z,-0.76
2022-12-11T22:22:19.841Z,-0.92
2022-12-11T22:24:46.268Z,-0.90
2022-12-11T22:27:12.547Z,-0.88
2022-12-11T22:29:38.816Z,-0.93
2022-12-11T22:32:05.092Z,-0.83
2022-12-11T22:34:31.429Z,-0.74
2022-12-11T22:36:57.696Z,-0.86
2022-12-11T22:39:24.766Z,-0.91
2022-12-11T22:41:51.110Z,-0.77
2022-12-11T22:44:18.073Z,-0.76
2022-12-11T22:46:49.620Z,-0.67
2022-12-11T22:49:16.710Z,-0.66
2022-12-11T22:51:42.989Z,-0.69
2022-12-11T22:54:09.393Z,-0.56
2022-12-11T22:56:35.676Z,-0.55
2022-12-11T22:59:01.951Z,-0.60
2022-12-11T23:01:28.336Z,-0.53
2022-12-11T23:03:54.626Z,-0.56
2022-12-11T23:06:21.679Z,-0.79
2022-12-11T23:08:48.011Z,-0.87
2022-12-11T23:11:14.288Z,-0.88
2022-12-11T23:13:40.596Z,-0.77
2022-12-11T23:16:06.875Z,-0.69
2022-12-11T23:18:33.147Z,-0.76
2022-12-11T23:20:59.450Z,-1.02
2022-12-11T23:23:25.727Z,-1.21
2022-12-11T23:25:51.993Z,-1.39
2022-12-11T23:28:18.523Z,-1.39
2022-12-11T23:30:44.859Z,-1.38
2022-12-11T23:33:11.182Z,-1.43
2022-12-11T23:35:37.443Z,-1.38
2022-12-11T23:38:03.721Z,-1.25
2022-12-11T23:40:30.032Z,-1.04
2022-12-11T23:42:56.325Z,-0.92
2022-12-11T23:45:22.711Z,-0.68
2022-12-11T23:47:49.044Z,-0.65
2022-12-11T23:50:15.329Z,-0.72
2022-12-11T23:52:41.591Z,-0.80
2022-12-11T23:55:08.095Z,-0.87
2022-12-11T23:57:34.508Z,-0.83
